sensor_id;sensor_type;location;lat;lon;timestamp;P1;durP1;ratioP1;P2;durP2;ratioP2
6205;SDS011;3136;48.788;9.772;2022-08-19T00:01:30;10.67;;;9.67;;
6205;SDS011;3136;48.788;9.772;2022-08-19T00:03:59;12.47;;;11.23;;
6205;SDS011;3136;48.788;9.772;2022-08-19T00:06:27;11.30;;;10.30;;
6205;SDS011;3136;48.788;9.772;2022-08-19T00:08:53;11.53;;;10.37;;
6205;SDS011;3136;48.788;9.772;2022-08-19T00:11:20;11.50;;;10.40;;
6205;SDS011;3136;48.788;9.772;2022-08-19T00:13:46;11.53;;;10.53;;
6205;SDS011;3136;48.788;9.772;2022-08-19T00:16:13;12.47;;;11.27;;
6205;SDS011;3136;48.788;9.772;2022-08-19T00:18:40;12.50;;;11.10;;
6205;SDS011;3136;48.788;9.772;2022-08-19T00:21:05;12.63;;;11.47;;
6205;SDS011;3136;48.788;9.772;2022-08-19T00:23:33;12.90;;;11.70;;
6205;SDS011;3136;48.788;9.772;2022-08-19T00:26:01;12.77;;;11.57;;
6205;SDS011;3136;48.788;9.772;2022-08-19T00:28:28;12.67;;;11.53;;
6205;SDS011;3136;48.788;9.772;2022-08-19T00:30:53;13.10;;;11.83;;
6205;SDS011;3136;48.788;9.772;2022-08-19T00:33:20;12.73;;;11.60;;
6205;SDS011;3136;48.788;9.772;2022-08-19T00:35:46;13.50;;;12.30;;
6205;SDS011;3136;48.788;9.772;2022-08-19T00:38:12;13.80;;;12.53;;
6205;SDS011;3136;48.788;9.772;2022-08-19T00:40:38;13.93;;;12.67;;
6205;SDS011;3136;48.788;9.772;2022-08-19T00:43:10;14.43;;;12.93;;
6205;SDS011;3136;48.788;9.772;2022-08-19T00:45:38;14.30;;;12.60;;
6205;SDS011;3136;48.788;9.772;2022-08-19T00:48:06;12.90;;;11.70;;
6205;SDS011;3136;48.788;9.772;2022-08-19T00:50:33;15.30;;;12.90;;
6205;SDS011;3136;48.788;9.772;2022-08-19T00:52:59;14.73;;;13.37;;
6205;SDS011;3136;48.788;9.772;2022-08-19T00:55:29;14.57;;;13.20;;
6205;SDS011;3136;48.788;9.772;2022-08-19T00:57:58;14.47;;;13.17;;
6205;SDS011;3136;48.788;9.772;2022-08-19T01:00:27;14.43;;;12.93;;
6205;SDS011;3136;48.788;9.772;2022-08-19T01:02:53;15.40;;;13.90;;
6205;SDS011;3136;48.788;9.772;2022-08-19T01:05:23;14.83;;;13.40;;
6205;SDS011;3136;48.788;9.772;2022-08-19T01:07:52;14.73;;;13.43;;
6205;SDS011;3136;48.788;9.772;2022-08-19T01:10:20;14.87;;;13.43;;
6205;SDS011;3136;48.788;9.772;2022-08-19T01:12:50;14.77;;;13.43;;
6205;SDS011;3136;48.788;9.772;2022-08-19T01:15:24;15.37;;;13.67;;
6205;SDS011;3136;48.788;9.772;2022-08-19T01:17:53;17.20;;;14.13;;
6205;SDS011;3136;48.788;9.772;2022-08-19T01:20:21;14.77;;;13.50;;
6205;SDS011;3136;48.788;9.772;2022-08-19T01:22:48;15.40;;;13.80;;
6205;SDS011;3136;48.788;9.772;2022-08-19T01:25:22;15.50;;;14.10;;
6205;SDS011;3136;48.788;9.772;2022-08-19T01:28:14;15.73;;;14.03;;
6205;SDS011;3136;48.788;9.772;2022-08-19T01:30:48;15.80;;;14.20;;
6205;SDS011;3136;48.788;9.772;2022-08-19T01:33:14;15.67;;;14.13;;
6205;SDS011;3136;48.788;9.772;2022-08-19T01:35:40;15.80;;;14.30;;
6205;SDS011;3136;48.788;9.772;2022-08-19T01:38:07;14.97;;;13.57;;
6205;SDS011;3136;48.788;9.772;2022-08-19T01:40:36;15.67;;;14.20;;
6205;SDS011;3136;48.788;9.772;2022-08-19T01:43:04;15.73;;;14.33;;
6205;SDS011;3136;48.788;9.772;2022-08-19T01:45:31;16.00;;;14.40;;
6205;SDS011;3136;48.788;9.772;2022-08-19T01:47:58;16.23;;;14.63;;
6205;SDS011;3136;48.788;9.772;2022-08-19T01:50:24;16.33;;;14.87;;
6205;SDS011;3136;48.788;9.772;2022-08-19T01:52:51;15.80;;;14.37;;
6205;SDS011;3136;48.788;9.772;2022-08-19T01:55:18;16.93;;;15.27;;
6205;SDS011;3136;48.788;9.772;2022-08-19T01:57:49;16.50;;;15.00;;
6205;SDS011;3136;48.788;9.772;2022-08-19T02:00:21;16.37;;;14.87;;
6205;SDS011;3136;48.788;9.772;2022-08-19T02:02:48;17.33;;;15.63;;
6205;SDS011;3136;48.788;9.772;2022-08-19T02:05:14;16.30;;;14.70;;
6205;SDS011;3136;48.788;9.772;2022-08-19T02:07:42;20.00;;;15.50;;
6205;SDS011;3136;48.788;9.772;2022-08-19T02:10:11;17.97;;;16.27;;
6205;SDS011;3136;48.788;9.772;2022-08-19T02:12:38;18.90;;;17.10;;
6205;SDS011;3136;48.788;9.772;2022-08-19T02:15:04;18.33;;;16.47;;
6205;SDS011;3136;48.788;9.772;2022-08-19T02:17:31;17.33;;;15.80;;
6205;SDS011;3136;48.788;9.772;2022-08-19T02:19:57;17.07;;;15.27;;
6205;SDS011;3136;48.788;9.772;2022-08-19T02:22:24;18.83;;;15.70;;
6205;SDS011;3136;48.788;9.772;2022-08-19T02:24:50;17.67;;;15.97;;
6205;SDS011;3136;48.788;9.772;2022-08-19T02:27:16;18.20;;;16.40;;
6205;SDS011;3136;48.788;9.772;2022-08-19T02:29:42;17.63;;;15.93;;
6205;SDS011;3136;48.788;9.772;2022-08-19T02:32:10;18.17;;;16.47;;
6205;SDS011;3136;48.788;9.772;2022-08-19T02:34:35;17.67;;;15.87;;
6205;SDS011;3136;48.788;9.772;2022-08-19T02:37:01;18.73;;;16.83;;
6205;SDS011;3136;48.788;9.772;2022-08-19T02:39:26;17.77;;;15.87;;
6205;SDS011;3136;48.788;9.772;2022-08-19T02:41:52;18.03;;;16.33;;
6205;SDS011;3136;48.788;9.772;2022-08-19T02:44:18;17.73;;;16.10;;
6205;SDS011;3136;48.788;9.772;2022-08-19T02:46:44;18.63;;;16.80;;
6205;SDS011;3136;48.788;9.772;2022-08-19T02:49:11;18.13;;;16.27;;
6205;SDS011;3136;48.788;9.772;2022-08-19T02:51:39;18.00;;;16.20;;
6205;SDS011;3136;48.788;9.772;2022-08-19T02:54:06;18.57;;;16.13;;
6205;SDS011;3136;48.788;9.772;2022-08-19T02:56:34;18.73;;;16.93;;
6205;SDS011;3136;48.788;9.772;2022-08-19T02:59:01;18.27;;;16.37;;
6205;SDS011;3136;48.788;9.772;2022-08-19T03:01:29;18.73;;;16.83;;
6205;SDS011;3136;48.788;9.772;2022-08-19T03:03:56;18.80;;;16.67;;
6205;SDS011;3136;48.788;9.772;2022-08-19T03:06:24;19.43;;;16.90;;
6205;SDS011;3136;48.788;9.772;2022-08-19T03:08:50;19.40;;;17.50;;
6205;SDS011;3136;48.788;9.772;2022-08-19T03:11:24;19.20;;;17.33;;
6205;SDS011;3136;48.788;9.772;2022-08-19T03:13:52;19.03;;;17.23;;
6205;SDS011;3136;48.788;9.772;2022-08-19T03:16:19;18.17;;;16.40;;
6205;SDS011;3136;48.788;9.772;2022-08-19T03:18:46;18.70;;;16.90;;
6205;SDS011;3136;48.788;9.772;2022-08-19T03:21:16;20.50;;;17.97;;
6205;SDS011;3136;48.788;9.772;2022-08-19T03:23:43;17.77;;;16.07;;
6205;SDS011;3136;48.788;9.772;2022-08-19T03:26:09;18.53;;;16.80;;
6205;SDS011;3136;48.788;9.772;2022-08-19T03:28:34;18.87;;;16.90;;
6205;SDS011;3136;48.788;9.772;2022-08-19T03:31:02;20.00;;;17.57;;
6205;SDS011;3136;48.788;9.772;2022-08-19T03:33:32;20.07;;;17.97;;
6205;SDS011;3136;48.788;9.772;2022-08-19T03:36:08;19.17;;;17.17;;
6205;SDS011;3136;48.788;9.772;2022-08-19T03:38:35;20.03;;;17.90;;
6205;SDS011;3136;48.788;9.772;2022-08-19T03:41:04;19.53;;;17.53;;
6205;SDS011;3136;48.788;9.772;2022-08-19T03:43:31;19.40;;;17.33;;
6205;SDS011;3136;48.788;9.772;2022-08-19T03:46:07;19.23;;;17.33;;
6205;SDS011;3136;48.788;9.772;2022-08-19T03:48:35;21.70;;;17.30;;
6205;SDS011;3136;48.788;9.772;2022-08-19T03:51:03;18.93;;;16.97;;
6205;SDS011;3136;48.788;9.772;2022-08-19T03:53:30;18.90;;;16.93;;
6205;SDS011;3136;48.788;9.772;2022-08-19T03:55:57;19.53;;;17.47;;
6205;SDS011;3136;48.788;9.772;2022-08-19T03:58:25;19.00;;;17.10;;
6205;SDS011;3136;48.788;9.772;2022-08-19T04:00:53;19.73;;;17.80;;
6205;SDS011;3136;48.788;9.772;2022-08-19T04:03:20;20.33;;;17.87;;
6205;SDS011;3136;48.788;9.772;2022-08-19T04:05:46;20.03;;;18.03;;
6205;SDS011;3136;48.788;9.772;2022-08-19T04:08:12;19.13;;;17.30;;
6205;SDS011;3136;48.788;9.772;2022-08-19T04:10:40;20.87;;;17.93;;
6205;SDS011;3136;48.788;9.772;2022-08-19T04:13:06;19.83;;;17.80;;
6205;SDS011;3136;48.788;9.772;2022-08-19T04:15:33;20.00;;;17.90;;
6205;SDS011;3136;48.788;9.772;2022-08-19T04:18:06;19.53;;;17.63;;
6205;SDS011;3136;48.788;9.772;2022-08-19T04:20:37;20.87;;;18.67;;
6205;SDS011;3136;48.788;9.772;2022-08-19T04:23:04;20.70;;;18.60;;
6205;SDS011;3136;48.788;9.772;2022-08-19T04:25:34;21.47;;;19.13;;
6205;SDS011;3136;48.788;9.772;2022-08-19T04:28:04;22.60;;;18.03;;
6205;SDS011;3136;48.788;9.772;2022-08-19T04:30:29;20.57;;;18.43;;
6205;SDS011;3136;48.788;9.772;2022-08-19T04:32:55;20.77;;;18.73;;
6205;SDS011;3136;48.788;9.772;2022-08-19T04:35:21;23.90;;;18.60;;
6205;SDS011;3136;48.788;9.772;2022-08-19T04:37:47;24.17;;;19.70;;
6205;SDS011;3136;48.788;9.772;2022-08-19T04:40:12;21.90;;;19.70;;
6205;SDS011;3136;48.788;9.772;2022-08-19T04:42:56;25.40;;;20.33;;
6205;SDS011;3136;48.788;9.772;2022-08-19T04:45:22;23.27;;;19.47;;
6205;SDS011;3136;48.788;9.772;2022-08-19T04:47:48;23.50;;;19.50;;
6205;SDS011;3136;48.788;9.772;2022-08-19T04:50:14;20.90;;;18.70;;
6205;SDS011;3136;48.788;9.772;2022-08-19T04:52:40;21.07;;;18.77;;
6205;SDS011;3136;48.788;9.772;2022-08-19T04:55:08;22.60;;;20.00;;
6205;SDS011;3136;48.788;9.772;2022-08-19T04:57:35;22.60;;;20.20;;
6205;SDS011;3136;48.788;9.772;2022-08-19T05:00:05;24.40;;;19.57;;
6205;SDS011;3136;48.788;9.772;2022-08-19T05:02:32;23.47;;;19.63;;
6205;SDS011;3136;48.788;9.772;2022-08-19T05:04:58;26.27;;;21.20;;
6205;SDS011;3136;48.788;9.772;2022-08-19T05:07:25;23.53;;;19.73;;
6205;SDS011;3136;48.788;9.772;2022-08-19T05:09:51;25.00;;;20.20;;
6205;SDS011;3136;48.788;9.772;2022-08-19T05:12:17;23.47;;;20.30;;
6205;SDS011;3136;48.788;9.772;2022-08-19T05:14:44;22.30;;;19.93;;
6205;SDS011;3136;48.788;9.772;2022-08-19T05:17:13;21.90;;;19.40;;
6205;SDS011;3136;48.788;9.772;2022-08-19T05:19:39;22.87;;;19.63;;
6205;SDS011;3136;48.788;9.772;2022-08-19T05:22:23;21.10;;;18.90;;
6205;SDS011;3136;48.788;9.772;2022-08-19T05:25:10;22.57;;;19.40;;
6205;SDS011;3136;48.788;9.772;2022-08-19T05:27:39;22.23;;;19.20;;
6205;SDS011;3136;48.788;9.772;2022-08-19T05:30:05;21.27;;;18.90;;
6205;SDS011;3136;48.788;9.772;2022-08-19T05:32:32;21.70;;;19.40;;
6205;SDS011;3136;48.788;9.772;2022-08-19T05:34:58;22.93;;;20.30;;
6205;SDS011;3136;48.788;9.772;2022-08-19T05:37:23;21.97;;;18.90;;
6205;SDS011;3136;48.788;9.772;2022-08-19T05:39:51;21.27;;;18.93;;
6205;SDS011;3136;48.788;9.772;2022-08-19T05:42:17;21.00;;;19.00;;
6205;SDS011;3136;48.788;9.772;2022-08-19T05:44:45;21.00;;;18.83;;
6205;SDS011;3136;48.788;9.772;2022-08-19T05:47:12;20.70;;;18.50;;
6205;SDS011;3136;48.788;9.772;2022-08-19T05:49:39;21.23;;;19.03;;
6205;SDS011;3136;48.788;9.772;2022-08-19T05:52:07;20.13;;;17.93;;
6205;SDS011;3136;48.788;9.772;2022-08-19T05:54:36;20.97;;;18.80;;
6205;SDS011;3136;48.788;9.772;2022-08-19T05:57:05;20.73;;;18.43;;
6205;SDS011;3136;48.788;9.772;2022-08-19T05:59:31;25.83;;;19.17;;
6205;SDS011;3136;48.788;9.772;2022-08-19T06:02:00;24.67;;;18.97;;
6205;SDS011;3136;48.788;9.772;2022-08-19T06:04:26;20.60;;;18.40;;
6205;SDS011;3136;48.788;9.772;2022-08-19T06:06:52;19.90;;;17.83;;
6205;SDS011;3136;48.788;9.772;2022-08-19T06:09:19;26.00;;;19.63;;
6205;SDS011;3136;48.788;9.772;2022-08-19T06:11:49;22.90;;;18.90;;
6205;SDS011;3136;48.788;9.772;2022-08-19T06:14:19;22.47;;;19.00;;
6205;SDS011;3136;48.788;9.772;2022-08-19T06:16:48;20.60;;;18.37;;
6205;SDS011;3136;48.788;9.772;2022-08-19T06:19:16;20.10;;;17.53;;
6205;SDS011;3136;48.788;9.772;2022-08-19T06:21:45;20.40;;;17.83;;
6205;SDS011;3136;48.788;9.772;2022-08-19T06:24:14;22.80;;;17.93;;
6205;SDS011;3136;48.788;9.772;2022-08-19T06:26:42;20.93;;;18.17;;
6205;SDS011;3136;48.788;9.772;2022-08-19T06:29:11;21.87;;;18.77;;
6205;SDS011;3136;48.788;9.772;2022-08-19T06:31:41;20.87;;;18.67;;
6205;SDS011;3136;48.788;9.772;2022-08-19T06:34:08;19.80;;;17.67;;
6205;SDS011;3136;48.788;9.772;2022-08-19T06:36:35;20.97;;;17.73;;
6205;SDS011;3136;48.788;9.772;2022-08-19T06:39:04;21.60;;;17.97;;
6205;SDS011;3136;48.788;9.772;2022-08-19T06:41:36;20.43;;;18.07;;
6205;SDS011;3136;48.788;9.772;2022-08-19T06:44:03;22.50;;;18.80;;
6205;SDS011;3136;48.788;9.772;2022-08-19T06:46:30;21.77;;;18.37;;
6205;SDS011;3136;48.788;9.772;2022-08-19T06:48:56;21.00;;;18.80;;
6205;SDS011;3136;48.788;9.772;2022-08-19T06:51:22;22.13;;;18.43;;
6205;SDS011;3136;48.788;9.772;2022-08-19T06:53:49;24.70;;;19.60;;
6205;SDS011;3136;48.788;9.772;2022-08-19T06:56:17;22.73;;;19.23;;
6205;SDS011;3136;48.788;9.772;2022-08-19T06:58:45;19.63;;;17.53;;
6205;SDS011;3136;48.788;9.772;2022-08-19T07:01:11;21.40;;;19.07;;
6205;SDS011;3136;48.788;9.772;2022-08-19T07:03:37;23.17;;;18.73;;
6205;SDS011;3136;48.788;9.772;2022-08-19T07:06:04;23.50;;;19.47;;
6205;SDS011;3136;48.788;9.772;2022-08-19T07:08:32;21.73;;;18.50;;
6205;SDS011;3136;48.788;9.772;2022-08-19T07:10:58;23.47;;;20.00;;
6205;SDS011;3136;48.788;9.772;2022-08-19T07:13:24;24.87;;;18.70;;
6205;SDS011;3136;48.788;9.772;2022-08-19T07:15:50;24.33;;;19.70;;
6205;SDS011;3136;48.788;9.772;2022-08-19T07:18:17;24.90;;;19.40;;
6205;SDS011;3136;48.788;9.772;2022-08-19T07:20:44;26.50;;;20.27;;
6205;SDS011;3136;48.788;9.772;2022-08-19T07:23:10;22.83;;;18.63;;
6205;SDS011;3136;48.788;9.772;2022-08-19T07:25:36;25.47;;;20.47;;
6205;SDS011;3136;48.788;9.772;2022-08-19T07:28:02;24.37;;;18.90;;
6205;SDS011;3136;48.788;9.772;2022-08-19T07:30:29;26.20;;;20.43;;
6205;SDS011;3136;48.788;9.772;2022-08-19T07:32:54;28.43;;;20.80;;
6205;SDS011;3136;48.788;9.772;2022-08-19T07:35:21;25.27;;;20.17;;
6205;SDS011;3136;48.788;9.772;2022-08-19T07:37:46;27.07;;;20.50;;
6205;SDS011;3136;48.788;9.772;2022-08-19T07:40:12;25.63;;;19.90;;
6205;SDS011;3136;48.788;9.772;2022-08-19T07:42:38;27.37;;;21.43;;
6205;SDS011;3136;48.788;9.772;2022-08-19T07:45:04;28.50;;;21.87;;
6205;SDS011;3136;48.788;9.772;2022-08-19T07:47:31;25.90;;;21.47;;
6205;SDS011;3136;48.788;9.772;2022-08-19T07:49:56;28.97;;;21.53;;
6205;SDS011;3136;48.788;9.772;2022-08-19T07:52:22;31.17;;;22.53;;
6205;SDS011;3136;48.788;9.772;2022-08-19T07:54:48;29.70;;;21.83;;
6205;SDS011;3136;48.788;9.772;2022-08-19T07:57:14;29.87;;;22.77;;
6205;SDS011;3136;48.788;9.772;2022-08-19T07:59:40;28.10;;;23.20;;
6205;SDS011;3136;48.788;9.772;2022-08-19T08:02:06;28.80;;;22.97;;
6205;SDS011;3136;48.788;9.772;2022-08-19T08:04:33;30.33;;;23.03;;
6205;SDS011;3136;48.788;9.772;2022-08-19T08:07:17;28.13;;;22.17;;
6205;SDS011;3136;48.788;9.772;2022-08-19T08:10:02;29.33;;;22.80;;
6205;SDS011;3136;48.788;9.772;2022-08-19T08:12:31;30.97;;;22.77;;
6205;SDS011;3136;48.788;9.772;2022-08-19T08:15:01;30.90;;;23.07;;
6205;SDS011;3136;48.788;9.772;2022-08-19T08:17:33;29.33;;;22.90;;
6205;SDS011;3136;48.788;9.772;2022-08-19T08:19:59;27.07;;;21.10;;
6205;SDS011;3136;48.788;9.772;2022-08-19T08:22:25;31.10;;;22.77;;
6205;SDS011;3136;48.788;9.772;2022-08-19T08:25:11;30.13;;;22.93;;
6205;SDS011;3136;48.788;9.772;2022-08-19T08:27:44;30.30;;;22.83;;
6205;SDS011;3136;48.788;9.772;2022-08-19T08:30:13;30.23;;;22.13;;
6205;SDS011;3136;48.788;9.772;2022-08-19T08:32:41;30.10;;;23.00;;
6205;SDS011;3136;48.788;9.772;2022-08-19T08:35:08;32.33;;;23.57;;
6205;SDS011;3136;48.788;9.772;2022-08-19T08:37:35;33.17;;;23.47;;
6205;SDS011;3136;48.788;9.772;2022-08-19T08:40:07;32.63;;;24.17;;
6205;SDS011;3136;48.788;9.772;2022-08-19T08:42:36;29.27;;;23.47;;
6205;SDS011;3136;48.788;9.772;2022-08-19T08:45:11;30.13;;;23.20;;
6205;SDS011;3136;48.788;9.772;2022-08-19T08:47:41;30.03;;;22.97;;
6205;SDS011;3136;48.788;9.772;2022-08-19T08:50:57;27.93;;;23.23;;
6205;SDS011;3136;48.788;9.772;2022-08-19T08:53:03;29.57;;;22.37;;
6205;SDS011;3136;48.788;9.772;2022-08-19T08:55:32;30.93;;;24.17;;
6205;SDS011;3136;48.788;9.772;2022-08-19T08:58:02;30.20;;;23.53;;
6205;SDS011;3136;48.788;9.772;2022-08-19T09:00:40;30.67;;;24.17;;
6205;SDS011;3136;48.788;9.772;2022-08-19T09:03:14;30.27;;;23.47;;
6205;SDS011;3136;48.788;9.772;2022-08-19T09:05:49;34.27;;;24.53;;
6205;SDS011;3136;48.788;9.772;2022-08-19T09:11:07;30.10;;;23.53;;
6205;SDS011;3136;48.788;9.772;2022-08-19T09:13:46;32.77;;;24.17;;
6205;SDS011;3136;48.788;9.772;2022-08-19T09:16:13;34.00;;;24.03;;
6205;SDS011;3136;48.788;9.772;2022-08-19T09:18:46;30.23;;;24.80;;
6205;SDS011;3136;48.788;9.772;2022-08-19T09:21:14;29.90;;;22.90;;
6205;SDS011;3136;48.788;9.772;2022-08-19T09:23:40;37.47;;;25.03;;
6205;SDS011;3136;48.788;9.772;2022-08-19T09:26:08;29.13;;;23.83;;
6205;SDS011;3136;48.788;9.772;2022-08-19T09:28:38;34.83;;;25.07;;
6205;SDS011;3136;48.788;9.772;2022-08-19T09:31:16;30.80;;;23.93;;
6205;SDS011;3136;48.788;9.772;2022-08-19T09:33:43;28.60;;;24.00;;
6205;SDS011;3136;48.788;9.772;2022-08-19T09:36:10;33.93;;;24.13;;
6205;SDS011;3136;48.788;9.772;2022-08-19T09:38:38;34.40;;;25.43;;
6205;SDS011;3136;48.788;9.772;2022-08-19T09:41:06;30.97;;;24.07;;
6205;SDS011;3136;48.788;9.772;2022-08-19T09:43:33;31.93;;;24.37;;
6205;SDS011;3136;48.788;9.772;2022-08-19T09:46:02;31.53;;;23.70;;
6205;SDS011;3136;48.788;9.772;2022-08-19T09:48:31;31.27;;;24.70;;
6205;SDS011;3136;48.788;9.772;2022-08-19T09:51:11;31.33;;;24.17;;
6205;SDS011;3136;48.788;9.772;2022-08-19T09:53:42;30.73;;;24.13;;
6205;SDS011;3136;48.788;9.772;2022-08-19T09:56:08;29.33;;;23.87;;
6205;SDS011;3136;48.788;9.772;2022-08-19T09:58:35;29.60;;;23.63;;
6205;SDS011;3136;48.788;9.772;2022-08-19T10:01:01;29.47;;;24.10;;
6205;SDS011;3136;48.788;9.772;2022-08-19T10:03:28;30.97;;;23.50;;
6205;SDS011;3136;48.788;9.772;2022-08-19T10:05:55;29.33;;;23.50;;
6205;SDS011;3136;48.788;9.772;2022-08-19T10:08:26;31.17;;;22.80;;
6205;SDS011;3136;48.788;9.772;2022-08-19T10:10:54;27.80;;;22.17;;
6205;SDS011;3136;48.788;9.772;2022-08-19T10:13:21;29.17;;;22.90;;
6205;SDS011;3136;48.788;9.772;2022-08-19T10:15:50;32.53;;;22.47;;
6205;SDS011;3136;48.788;9.772;2022-08-19T10:18:21;28.73;;;22.33;;
6205;SDS011;3136;48.788;9.772;2022-08-19T10:20:48;29.50;;;23.20;;
6205;SDS011;3136;48.788;9.772;2022-08-19T10:23:16;29.13;;;23.43;;
6205;SDS011;3136;48.788;9.772;2022-08-19T10:25:42;27.93;;;21.93;;
6205;SDS011;3136;48.788;9.772;2022-08-19T10:28:07;29.13;;;22.33;;
6205;SDS011;3136;48.788;9.772;2022-08-19T10:30:37;28.53;;;23.27;;
6205;SDS011;3136;48.788;9.772;2022-08-19T10:33:06;30.73;;;23.07;;
6205;SDS011;3136;48.788;9.772;2022-08-19T10:35:32;30.60;;;22.83;;
6205;SDS011;3136;48.788;9.772;2022-08-19T10:37:57;27.80;;;21.40;;
6205;SDS011;3136;48.788;9.772;2022-08-19T10:40:25;33.40;;;23.70;;
6205;SDS011;3136;48.788;9.772;2022-08-19T10:42:52;26.83;;;22.47;;
6205;SDS011;3136;48.788;9.772;2022-08-19T10:45:18;31.77;;;22.73;;
6205;SDS011;3136;48.788;9.772;2022-08-19T10:47:43;28.80;;;22.53;;
6205;SDS011;3136;48.788;9.772;2022-08-19T10:50:09;29.53;;;21.37;;
6205;SDS011;3136;48.788;9.772;2022-08-19T10:52:53;28.67;;;21.67;;
6205;SDS011;3136;48.788;9.772;2022-08-19T10:55:20;26.43;;;20.97;;
6205;SDS011;3136;48.788;9.772;2022-08-19T10:58:13;24.83;;;20.93;;
6205;SDS011;3136;48.788;9.772;2022-08-19T11:00:40;22.33;;;19.93;;
6205;SDS011;3136;48.788;9.772;2022-08-19T11:03:07;23.43;;;20.00;;
6205;SDS011;3136;48.788;9.772;2022-08-19T11:05:33;25.93;;;20.53;;
6205;SDS011;3136;48.788;9.772;2022-08-19T11:07:59;26.17;;;20.17;;
6205;SDS011;3136;48.788;9.772;2022-08-19T11:10:24;23.90;;;19.43;;
6205;SDS011;3136;48.788;9.772;2022-08-19T11:12:50;23.47;;;19.70;;
6205;SDS011;3136;48.788;9.772;2022-08-19T11:15:19;23.73;;;19.97;;
6205;SDS011;3136;48.788;9.772;2022-08-19T11:17:45;25.47;;;18.60;;
6205;SDS011;3136;48.788;9.772;2022-08-19T11:20:11;25.00;;;19.60;;
6205;SDS011;3136;48.788;9.772;2022-08-19T11:22:38;22.77;;;18.63;;
6205;SDS011;3136;48.788;9.772;2022-08-19T11:25:05;23.07;;;19.00;;
6205;SDS011;3136;48.788;9.772;2022-08-19T11:27:32;25.60;;;20.17;;
6205;SDS011;3136;48.788;9.772;2022-08-19T11:29:58;25.27;;;19.17;;
6205;SDS011;3136;48.788;9.772;2022-08-19T11:32:24;27.03;;;21.00;;
6205;SDS011;3136;48.788;9.772;2022-08-19T11:34:49;23.70;;;20.90;;
6205;SDS011;3136;48.788;9.772;2022-08-19T11:37:15;26.77;;;21.90;;
6205;SDS011;3136;48.788;9.772;2022-08-19T11:39:41;25.73;;;21.43;;
6205;SDS011;3136;48.788;9.772;2022-08-19T11:42:06;31.77;;;22.37;;
6205;SDS011;3136;48.788;9.772;2022-08-19T11:44:52;29.00;;;23.13;;
6205;SDS011;3136;48.788;9.772;2022-08-19T11:47:17;33.53;;;23.90;;
6205;SDS011;3136;48.788;9.772;2022-08-19T11:49:45;35.97;;;25.70;;
6205;SDS011;3136;48.788;9.772;2022-08-19T11:52:11;33.33;;;25.50;;
6205;SDS011;3136;48.788;9.772;2022-08-19T11:54:37;37.00;;;26.23;;
6205;SDS011;3136;48.788;9.772;2022-08-19T11:57:03;39.40;;;27.60;;
6205;SDS011;3136;48.788;9.772;2022-08-19T11:59:29;42.07;;;28.33;;
6205;SDS011;3136;48.788;9.772;2022-08-19T12:01:54;41.13;;;27.30;;
6205;SDS011;3136;48.788;9.772;2022-08-19T12:04:20;37.53;;;26.33;;
6205;SDS011;3136;48.788;9.772;2022-08-19T12:06:46;48.10;;;27.50;;
6205;SDS011;3136;48.788;9.772;2022-08-19T12:09:12;45.63;;;29.07;;
6205;SDS011;3136;48.788;9.772;2022-08-19T12:11:39;44.73;;;27.90;;
6205;SDS011;3136;48.788;9.772;2022-08-19T12:14:06;46.80;;;29.33;;
6205;SDS011;3136;48.788;9.772;2022-08-19T12:16:34;47.87;;;28.57;;
6205;SDS011;3136;48.788;9.772;2022-08-19T12:19:00;51.13;;;30.80;;
6205;SDS011;3136;48.788;9.772;2022-08-19T12:21:29;53.63;;;31.37;;
6205;SDS011;3136;48.788;9.772;2022-08-19T12:23:57;63.63;;;33.97;;
6205;SDS011;3136;48.788;9.772;2022-08-19T12:26:24;56.53;;;33.63;;
6205;SDS011;3136;48.788;9.772;2022-08-19T12:28:51;73.57;;;35.20;;
6205;SDS011;3136;48.788;9.772;2022-08-19T12:31:17;62.27;;;34.50;;
6205;SDS011;3136;48.788;9.772;2022-08-19T12:33:44;61.60;;;34.07;;
6205;SDS011;3136;48.788;9.772;2022-08-19T12:36:12;66.20;;;36.37;;
6205;SDS011;3136;48.788;9.772;2022-08-19T12:38:40;69.87;;;36.97;;
6205;SDS011;3136;48.788;9.772;2022-08-19T12:41:06;70.93;;;35.87;;
6205;SDS011;3136;48.788;9.772;2022-08-19T12:43:35;69.27;;;36.90;;
6205;SDS011;3136;48.788;9.772;2022-08-19T12:46:03;88.23;;;39.57;;
6205;SDS011;3136;48.788;9.772;2022-08-19T12:48:30;68.83;;;36.80;;
6205;SDS011;3136;48.788;9.772;2022-08-19T12:50:56;79.83;;;38.13;;
6205;SDS011;3136;48.788;9.772;2022-08-19T12:53:22;68.57;;;36.10;;
6205;SDS011;3136;48.788;9.772;2022-08-19T12:55:47;72.37;;;36.50;;
6205;SDS011;3136;48.788;9.772;2022-08-19T12:58:20;81.63;;;37.23;;
6205;SDS011;3136;48.788;9.772;2022-08-19T13:00:46;77.73;;;36.00;;
6205;SDS011;3136;48.788;9.772;2022-08-19T13:03:12;76.10;;;36.40;;
6205;SDS011;3136;48.788;9.772;2022-08-19T13:05:38;87.90;;;39.03;;
6205;SDS011;3136;48.788;9.772;2022-08-19T13:08:04;87.60;;;37.67;;
6205;SDS011;3136;48.788;9.772;2022-08-19T13:10:31;89.60;;;39.17;;
6205;SDS011;3136;48.788;9.772;2022-08-19T13:13:01;77.60;;;37.23;;
6205;SDS011;3136;48.788;9.772;2022-08-19T13:15:28;91.43;;;38.40;;
6205;SDS011;3136;48.788;9.772;2022-08-19T13:17:57;86.87;;;39.77;;
6205;SDS011;3136;48.788;9.772;2022-08-19T13:20:23;84.57;;;39.73;;
6205;SDS011;3136;48.788;9.772;2022-08-19T13:22:49;85.50;;;40.00;;
6205;SDS011;3136;48.788;9.772;2022-08-19T13:25:15;71.07;;;35.50;;
6205;SDS011;3136;48.788;9.772;2022-08-19T13:27:44;79.47;;;36.60;;
6205;SDS011;3136;48.788;9.772;2022-08-19T13:30:10;71.07;;;35.43;;
6205;SDS011;3136;48.788;9.772;2022-08-19T13:32:57;67.77;;;34.60;;
6205;SDS011;3136;48.788;9.772;2022-08-19T13:35:47;74.83;;;35.27;;
6205;SDS011;3136;48.788;9.772;2022-08-19T13:38:22;71.20;;;35.37;;
6205;SDS011;3136;48.788;9.772;2022-08-19T13:40:48;74.57;;;35.13;;
6205;SDS011;3136;48.788;9.772;2022-08-19T13:43:16;72.43;;;35.50;;
6205;SDS011;3136;48.788;9.772;2022-08-19T13:45:43;85.80;;;36.63;;
6205;SDS011;3136;48.788;9.772;2022-08-19T13:48:09;79.90;;;37.10;;
6205;SDS011;3136;48.788;9.772;2022-08-19T13:50:38;71.77;;;35.63;;
6205;SDS011;3136;48.788;9.772;2022-08-19T13:53:09;69.27;;;35.27;;
6205;SDS011;3136;48.788;9.772;2022-08-19T13:55:39;70.20;;;33.80;;
6205;SDS011;3136;48.788;9.772;2022-08-19T13:58:06;65.77;;;34.13;;
6205;SDS011;3136;48.788;9.772;2022-08-19T14:00:33;76.87;;;36.67;;
6205;SDS011;3136;48.788;9.772;2022-08-19T14:03:04;80.97;;;37.37;;
6205;SDS011;3136;48.788;9.772;2022-08-19T14:05:31;89.27;;;36.53;;
6205;SDS011;3136;48.788;9.772;2022-08-19T14:07:57;85.87;;;35.80;;
6205;SDS011;3136;48.788;9.772;2022-08-19T14:10:23;90.33;;;37.60;;
6205;SDS011;3136;48.788;9.772;2022-08-19T14:12:54;80.60;;;39.53;;
6205;SDS011;3136;48.788;9.772;2022-08-19T14:15:23;90.33;;;38.83;;
6205;SDS011;3136;48.788;9.772;2022-08-19T14:17:49;109.50;;;41.57;;
6205;SDS011;3136;48.788;9.772;2022-08-19T14:20:15;84.40;;;37.63;;
6205;SDS011;3136;48.788;9.772;2022-08-19T14:22:41;72.60;;;35.53;;
6205;SDS011;3136;48.788;9.772;2022-08-19T14:25:10;73.17;;;35.33;;
6205;SDS011;3136;48.788;9.772;2022-08-19T14:27:37;67.97;;;34.77;;
6205;SDS011;3136;48.788;9.772;2022-08-19T14:30:05;61.67;;;34.27;;
6205;SDS011;3136;48.788;9.772;2022-08-19T14:32:36;74.83;;;34.67;;
6205;SDS011;3136;48.788;9.772;2022-08-19T14:35:02;68.73;;;35.80;;
6205;SDS011;3136;48.788;9.772;2022-08-19T14:37:29;67.77;;;34.37;;
6205;SDS011;3136;48.788;9.772;2022-08-19T14:39:55;56.00;;;31.33;;
6205;SDS011;3136;48.788;9.772;2022-08-19T14:42:20;62.30;;;34.57;;
6205;SDS011;3136;48.788;9.772;2022-08-19T14:44:46;56.70;;;32.53;;
6205;SDS011;3136;48.788;9.772;2022-08-19T14:47:12;52.97;;;30.60;;
6205;SDS011;3136;48.788;9.772;2022-08-19T14:49:37;50.27;;;29.87;;
6205;SDS011;3136;48.788;9.772;2022-08-19T14:52:04;50.27;;;30.47;;
6205;SDS011;3136;48.788;9.772;2022-08-19T14:54:30;45.57;;;29.57;;
6205;SDS011;3136;48.788;9.772;2022-08-19T14:56:55;45.77;;;28.97;;